sensor_id;sensor_type;location;lat;lon;timestamp;pressure;altitude;pressure_sealevel;temperature;humidity
25526;BME280;13424;48.424;11.258;2022-12-05T00:01:30;95273.38;;;4.27;83.29
25526;BME280;13424;48.424;11.258;2022-12-05T00:03:59;95258.91;;;4.81;81.87
25526;BME280;13424;48.424;11.258;2022-12-05T00:06:27;95266.63;;;4.82;81.16
25526;BME280;13424;48.424;11.258;2022-12-05T00:13:00;95293.41;;;4.92;80.35
25526;BME280;13424;48.424;11.258;2022-12-05T00:15:26;95286.81;;;5.08;80.35
25526;BME280;13424;48.424;11.258;2022-12-05T00:17:51;95291.94;;;4.58;81.74
25526;BME280;13424;48.424;11.258;2022-12-05T00:20:17;95296.47;;;4.89;80.70
25526;BME280;13424;48.424;11.258;2022-12-05T00:22:43;95290.94;;;4.97;80.18
25526;BME280;13424;48.424;11.258;2022-12-05T00:25:09;95292.56;;;4.54;81.91
25526;BME280;13424;48.424;11.258;2022-12-05T00:27:35;95280.81;;;4.88;80.79
25526;BME280;13424;48.424;11.258;2022-12-05T00:30:01;95289.22;;;4.71;81.06
25526;BME280;13424;48.424;11.258;2022-12-05T00:32:30;95297.66;;;4.42;82.43
25526;BME280;13424;48.424;11.258;2022-12-05T00:34:56;95300.59;;;4.79;81.28
25526;BME280;13424;48.424;11.258;2022-12-05T00:37:22;95318.72;;;4.68;81.45
25526;BME280;13424;48.424;11.258;2022-12-05T00:39:48;95320.41;;;4.49;81.93
25526;BME280;13424;48.424;11.258;2022-12-05T00:42:14;95320.38;;;4.56;81.57
25526;BME280;13424;48.424;11.258;2022-12-05T00:44:40;95317.50;;;4.64;81.56
25526;BME280;13424;48.424;11.258;2022-12-05T00:47:06;95318.41;;;4.45;82.65
25526;BME280;13424;48.424;11.258;2022-12-05T00:49:32;95308.66;;;4.39;81.89
25526;BME280;13424;48.424;11.258;2022-12-05T00:51:58;95323.03;;;4.49;82.09
25526;BME280;13424;48.424;11.258;2022-12-05T00:54:23;95324.03;;;4.62;81.57
25526;BME280;13424;48.424;11.258;2022-12-05T00:56:49;95319.19;;;4.52;81.50
25526;BME280;13424;48.424;11.258;2022-12-05T00:59:20;95329.56;;;4.47;82.45
25526;BME280;13424;48.424;11.258;2022-12-05T01:01:48;95325.03;;;4.67;81.25
25526;BME280;13424;48.424;11.258;2022-12-05T01:04:24;95321.09;;;4.90;80.44
25526;BME280;13424;48.424;11.258;2022-12-05T01:06:53;95317.19;;;4.34;82.00
25526;BME280;13424;48.424;11.258;2022-12-05T01:09:51;95325.88;;;4.61;80.66
25526;BME280;13424;48.424;11.258;2022-12-05T01:12:17;95323.66;;;4.58;80.74
25526;BME280;13424;48.424;11.258;2022-12-05T01:14:42;95341.44;;;4.83;80.09
25526;BME280;13424;48.424;11.258;2022-12-05T01:17:09;95344.81;;;4.45;81.24
25526;BME280;13424;48.424;11.258;2022-12-05T01:19:34;95348.69;;;4.36;81.77
25526;BME280;13424;48.424;11.258;2022-12-05T01:22:00;95350.09;;;4.45;81.52
25526;BME280;13424;48.424;11.258;2022-12-05T01:24:27;95357.44;;;4.16;82.50
25526;BME280;13424;48.424;11.258;2022-12-05T01:26:54;95359.28;;;4.16;82.67
25526;BME280;13424;48.424;11.258;2022-12-05T01:29:21;95367.63;;;4.19;82.42
25526;BME280;13424;48.424;11.258;2022-12-05T01:31:48;95380.78;;;4.33;82.23
25526;BME280;13424;48.424;11.258;2022-12-05T01:34:16;95389.34;;;4.02;83.06
25526;BME280;13424;48.424;11.258;2022-12-05T01:36:43;95389.16;;;4.03;83.26
25526;BME280;13424;48.424;11.258;2022-12-05T01:39:10;95389.16;;;4.03;83.10
25526;BME280;13424;48.424;11.258;2022-12-05T01:41:44;95382.84;;;4.04;83.31
25526;BME280;13424;48.424;11.258;2022-12-05T01:46:47;95386.09;;;4.00;82.88
25526;BME280;13424;48.424;11.258;2022-12-05T01:49:22;95393.00;;;4.14;83.50
25526;BME280;13424;48.424;11.258;2022-12-05T01:51:53;95391.38;;;4.00;83.96
25526;BME280;13424;48.424;11.258;2022-12-05T01:54:20;95395.81;;;3.86;84.52
25526;BME280;13424;48.424;11.258;2022-12-05T01:57:09;95411.47;;;3.94;84.33
25526;BME280;13424;48.424;11.258;2022-12-05T01:59:40;95393.63;;;3.96;84.19
25526;BME280;13424;48.424;11.258;2022-12-05T02:02:08;95402.94;;;3.92;84.58
25526;BME280;13424;48.424;11.258;2022-12-05T02:04:57;95404.78;;;4.11;84.52
25526;BME280;13424;48.424;11.258;2022-12-05T02:07:25;95407.81;;;4.08;83.65
25526;BME280;13424;48.424;11.258;2022-12-05T02:09:51;95439.09;;;4.05;83.59
25526;BME280;13424;48.424;11.258;2022-12-05T02:12:19;95454.06;;;3.71;85.42
25526;BME280;13424;48.424;11.258;2022-12-05T02:15:04;95440.31;;;3.89;84.86
25526;BME280;13424;48.424;11.258;2022-12-05T02:18:08;95429.50;;;3.77;84.91
25526;BME280;13424;48.424;11.258;2022-12-05T02:35:11;95460.88;;;3.39;87.07
25526;BME280;13424;48.424;11.258;2022-12-05T02:37:53;95432.59;;;4.07;84.32
25526;BME280;13424;48.424;11.258;2022-12-05T02:40:48;95441.72;;;4.05;84.68
25526;BME280;13424;48.424;11.258;2022-12-05T02:43:37;95442.31;;;3.80;85.76
25526;BME280;13424;48.424;11.258;2022-12-05T02:46:13;95462.63;;;4.00;84.58
25526;BME280;13424;48.424;11.258;2022-12-05T02:48:41;95449.19;;;3.75;85.46
25526;BME280;13424;48.424;11.258;2022-12-05T02:51:09;95437.84;;;3.94;85.06
25526;BME280;13424;48.424;11.258;2022-12-05T02:53:37;95442.72;;;4.17;83.60
25526;BME280;13424;48.424;11.258;2022-12-05T02:56:05;95459.19;;;4.26;83.54
25526;BME280;13424;48.424;11.258;2022-12-05T02:58:42;95467.94;;;4.13;84.09
25526;BME280;13424;48.424;11.258;2022-12-05T03:01:09;95468.34;;;4.30;83.32
25526;BME280;13424;48.424;11.258;2022-12-05T03:03:35;95463.66;;;4.32;83.52
25526;BME280;13424;48.424;11.258;2022-12-05T03:06:18;95472.00;;;4.35;83.10
25526;BME280;13424;48.424;11.258;2022-12-05T03:11:18;95474.03;;;4.13;84.59
25526;BME280;13424;48.424;11.258;2022-12-05T03:13:51;95479.72;;;4.37;83.77
25526;BME280;13424;48.424;11.258;2022-12-05T03:16:37;95466.50;;;4.43;83.18
25526;BME280;13424;48.424;11.258;2022-12-05T03:19:11;95486.19;;;4.14;84.20
25526;BME280;13424;48.424;11.258;2022-12-05T03:21:54;95478.28;;;4.28;84.09
25526;BME280;13424;48.424;11.258;2022-12-05T03:24:21;95472.00;;;4.22;84.18
25526;BME280;13424;48.424;11.258;2022-12-05T03:32:10;95499.56;;;3.93;85.09
25526;BME280;13424;48.424;11.258;2022-12-05T03:35:04;95503.84;;;4.01;84.94
25526;BME280;13424;48.424;11.258;2022-12-05T03:38:03;95501.41;;;4.06;84.60
25526;BME280;13424;48.424;11.258;2022-12-05T03:40:45;95503.66;;;4.15;83.84
25526;BME280;13424;48.424;11.258;2022-12-05T03:46:25;95504.63;;;3.95;84.33
25526;BME280;13424;48.424;11.258;2022-12-05T03:52:10;95525.75;;;3.88;85.43
25526;BME280;13424;48.424;11.258;2022-12-05T03:54:48;95533.31;;;4.04;84.28
25526;BME280;13424;48.424;11.258;2022-12-05T03:57:34;95526.75;;;3.80;85.02
25526;BME280;13424;48.424;11.258;2022-12-05T04:00:19;95514.97;;;3.83;84.96
25526;BME280;13424;48.424;11.258;2022-12-05T04:02:58;95520.19;;;3.56;85.66
25526;BME280;13424;48.424;11.258;2022-12-05T04:05:51;95538.06;;;3.68;85.48
25526;BME280;13424;48.424;11.258;2022-12-05T04:08:29;95548.47;;;3.82;84.54
25526;BME280;13424;48.424;11.258;2022-12-05T04:11:08;95532.94;;;3.53;85.46
25526;BME280;13424;48.424;11.258;2022-12-05T04:13:44;95551.47;;;3.73;85.32
25526;BME280;13424;48.424;11.258;2022-12-05T04:16:38;95550.69;;;3.85;84.82
25526;BME280;13424;48.424;11.258;2022-12-05T04:20:13;95540.13;;;3.72;84.72
25526;BME280;13424;48.424;11.258;2022-12-05T04:22:50;95539.78;;;4.08;84.14
25526;BME280;13424;48.424;11.258;2022-12-05T04:25:16;95540.59;;;4.02;84.17
25526;BME280;13424;48.424;11.258;2022-12-05T04:30:49;95537.41;;;4.27;83.18
25526;BME280;13424;48.424;11.258;2022-12-05T04:33:43;95533.75;;;4.28;82.72
25526;BME280;13424;48.424;11.258;2022-12-05T04:36:18;95531.53;;;4.51;81.82
25526;BME280;13424;48.424;11.258;2022-12-05T04:39:06;95530.28;;;4.73;81.75
25526;BME280;13424;48.424;11.258;2022-12-05T04:44:12;95538.00;;;4.82;80.93
25526;BME280;13424;48.424;11.258;2022-12-05T04:46:42;95543.91;;;4.77;81.28
25526;BME280;13424;48.424;11.258;2022-12-05T04:49:12;95533.72;;;4.81;81.33
25526;BME280;13424;48.424;11.258;2022-12-05T04:51:41;95525.41;;;4.37;82.95
25526;BME280;13424;48.424;11.258;2022-12-05T04:54:26;95529.06;;;4.83;81.50
25526;BME280;13424;48.424;11.258;2022-12-05T04:56:58;95538.94;;;5.20;79.75
25526;BME280;13424;48.424;11.258;2022-12-05T04:59:26;95540.56;;;5.28;79.46
25526;BME280;13424;48.424;11.258;2022-12-05T05:01:56;95536.50;;;5.25;79.64
25526;BME280;13424;48.424;11.258;2022-12-05T05:04:33;95532.44;;;5.29;79.74
25526;BME280;13424;48.424;11.258;2022-12-05T05:07:05;95532.25;;;5.24;79.40
25526;BME280;13424;48.424;11.258;2022-12-05T05:09:31;95530.31;;;5.45;79.01
25526;BME280;13424;48.424;11.258;2022-12-05T05:11:57;95541.78;;;5.25;79.84
25526;BME280;13424;48.424;11.258;2022-12-05T05:14:23;95529.50;;;5.51;78.70
25526;BME280;13424;48.424;11.258;2022-12-05T05:16:48;95524.63;;;5.48;79.10
25526;BME280;13424;48.424;11.258;2022-12-05T05:19:14;95526.84;;;5.51;78.96
25526;BME280;13424;48.424;11.258;2022-12-05T05:21:41;95528.78;;;5.24;79.61
25526;BME280;13424;48.424;11.258;2022-12-05T05:24:09;95530.41;;;5.25;79.43
25526;BME280;13424;48.424;11.258;2022-12-05T05:26:41;95529.22;;;5.08;80.44
25526;BME280;13424;48.424;11.258;2022-12-05T05:29:08;95529.03;;;4.96;80.95
25526;BME280;13424;48.424;11.258;2022-12-05T05:31:34;95521.94;;;4.90;81.38
25526;BME280;13424;48.424;11.258;2022-12-05T05:34:00;95529.94;;;5.41;79.96
25526;BME280;13424;48.424;11.258;2022-12-05T05:36:27;95521.66;;;5.76;78.80
25526;BME280;13424;48.424;11.258;2022-12-05T05:38:57;95538.34;;;5.76;78.45
25526;BME280;13424;48.424;11.258;2022-12-05T05:41:29;95533.47;;;5.73;78.04
25526;BME280;13424;48.424;11.258;2022-12-05T05:43:55;95535.94;;;5.68;79.05
25526;BME280;13424;48.424;11.258;2022-12-05T05:46:24;95538.41;;;5.63;79.08
25526;BME280;13424;48.424;11.258;2022-12-05T05:48:50;95542.56;;;5.46;79.66
25526;BME280;13424;48.424;11.258;2022-12-05T05:51:18;95537.88;;;5.48;80.07
25526;BME280;13424;48.424;11.258;2022-12-05T05:54:12;95545.31;;;5.71;78.68
25526;BME280;13424;48.424;11.258;2022-12-05T05:56:38;95550.75;;;5.82;78.28
25526;BME280;13424;48.424;11.258;2022-12-05T05:59:04;95550.75;;;5.76;78.45
25526;BME280;13424;48.424;11.258;2022-12-05T06:01:30;95557.50;;;5.78;78.46
25526;BME280;13424;48.424;11.258;2022-12-05T06:03:56;95566.88;;;5.74;79.51
25526;BME280;13424;48.424;11.258;2022-12-05T06:06:23;95577.38;;;6.01;77.87
25526;BME280;13424;48.424;11.258;2022-12-05T06:08:49;95568.03;;;5.92;78.53
25526;BME280;13424;48.424;11.258;2022-12-05T06:11:49;95569.25;;;5.96;78.08
25526;BME280;13424;48.424;11.258;2022-12-05T06:14:14;95576.34;;;6.02;77.82
25526;BME280;13424;48.424;11.258;2022-12-05T06:16:40;95569.63;;;5.99;77.98
25526;BME280;13424;48.424;11.258;2022-12-05T06:19:06;95568.59;;;5.49;80.27
25526;BME280;13424;48.424;11.258;2022-12-05T06:21:32;95564.06;;;5.63;79.66
25526;BME280;13424;48.424;11.258;2022-12-05T06:23:58;95565.25;;;5.73;79.24
25526;BME280;13424;48.424;11.258;2022-12-05T06:26:24;95576.63;;;5.74;79.25
25526;BME280;13424;48.424;11.258;2022-12-05T06:28:50;95578.22;;;5.81;79.25
25526;BME280;13424;48.424;11.258;2022-12-05T06:31:20;95581.94;;;5.67;79.67
25526;BME280;13424;48.424;11.258;2022-12-05T06:33:46;95574.47;;;5.51;80.32
25526;BME280;13424;48.424;11.258;2022-12-05T06:36:16;95583.44;;;5.50;80.87
25526;BME280;13424;48.424;11.258;2022-12-05T06:38:41;95592.94;;;5.77;79.84
25526;BME280;13424;48.424;11.258;2022-12-05T06:41:13;95613.25;;;5.83;79.40
25526;BME280;13424;48.424;11.258;2022-12-05T06:43:41;95620.59;;;5.75;80.19
25526;BME280;13424;48.424;11.258;2022-12-05T06:46:09;95617.75;;;5.76;79.89
25526;BME280;13424;48.424;11.258;2022-12-05T06:48:36;95623.00;;;5.96;79.21
25526;BME280;13424;48.424;11.258;2022-12-05T06:54:31;95629.31;;;6.02;78.61
25526;BME280;13424;48.424;11.258;2022-12-05T06:56:57;95621.38;;;6.02;79.29
25526;BME280;13424;48.424;11.258;2022-12-05T06:59:23;95625.88;;;5.81;80.08
25526;BME280;13424;48.424;11.258;2022-12-05T07:01:49;95627.50;;;5.82;80.32
25526;BME280;13424;48.424;11.258;2022-12-05T07:04:20;95625.41;;;6.04;79.26
25526;BME280;13424;48.424;11.258;2022-12-05T07:06:51;95624.16;;;6.13;79.26
25526;BME280;13424;48.424;11.258;2022-12-05T07:09:24;95630.72;;;6.04;78.76
25526;BME280;13424;48.424;11.258;2022-12-05T07:12:13;95633.50;;;6.16;78.57
25526;BME280;13424;48.424;11.258;2022-12-05T07:14:41;95628.69;;;6.00;79.21
25526;BME280;13424;48.424;11.258;2022-12-05T07:17:07;95618.03;;;6.13;79.27
25526;BME280;13424;48.424;11.258;2022-12-05T07:19:33;95635.34;;;6.15;78.69
25526;BME280;13424;48.424;11.258;2022-12-05T07:21:58;95644.81;;;6.36;77.84
25526;BME280;13424;48.424;11.258;2022-12-05T07:24:25;95652.44;;;6.20;78.68
25526;BME280;13424;48.424;11.258;2022-12-05T07:26:51;95650.13;;;6.36;78.76
25526;BME280;13424;48.424;11.258;2022-12-05T07:29:18;95655.06;;;6.26;78.55
25526;BME280;13424;48.424;11.258;2022-12-05T07:31:44;95663.56;;;6.41;78.40
25526;BME280;13424;48.424;11.258;2022-12-05T07:34:10;95665.25;;;6.29;79.09
25526;BME280;13424;48.424;11.258;2022-12-05T07:36:36;95664.63;;;6.34;78.60
25526;BME280;13424;48.424;11.258;2022-12-05T07:39:02;95671.75;;;6.33;78.43
25526;BME280;13424;48.424;11.258;2022-12-05T07:41:31;95665.69;;;6.20;78.70
25526;BME280;13424;48.424;11.258;2022-12-05T07:43:58;95678.91;;;6.26;79.81
25526;BME280;13424;48.424;11.258;2022-12-05T07:46:26;95671.13;;;6.31;79.57
25526;BME280;13424;48.424;11.258;2022-12-05T07:48:52;95672.13;;;6.37;79.30
25526;BME280;13424;48.424;11.258;2022-12-05T07:51:19;95671.25;;;6.50;78.62
25526;BME280;13424;48.424;11.258;2022-12-05T07:53:46;95683.97;;;6.72;77.55
25526;BME280;13424;48.424;11.258;2022-12-05T07:56:14;95679.13;;;6.63;77.58
25526;BME280;13424;48.424;11.258;2022-12-05T07:58:43;95674.81;;;6.68;77.80
25526;BME280;13424;48.424;11.258;2022-12-05T08:01:22;95678.38;;;6.87;77.18
25526;BME280;13424;48.424;11.258;2022-12-05T08:03:49;95669.94;;;6.65;77.27
25526;BME280;13424;48.424;11.258;2022-12-05T08:06:20;95673.16;;;6.74;77.46
25526;BME280;13424;48.424;11.258;2022-12-05T08:08:47;95683.69;;;6.87;77.38
25526;BME280;13424;48.424;11.258;2022-12-05T08:11:21;95665.63;;;6.71;77.63
25526;BME280;13424;48.424;11.258;2022-12-05T08:13:48;95658.72;;;6.95;76.70
25526;BME280;13424;48.424;11.258;2022-12-05T08:16:17;95667.53;;;6.64;77.56
25526;BME280;13424;48.424;11.258;2022-12-05T08:18:44;95654.94;;;6.84;77.54
25526;BME280;13424;48.424;11.258;2022-12-05T08:21:44;95656.16;;;6.88;76.51
25526;BME280;13424;48.424;11.258;2022-12-05T08:24:10;95655.31;;;7.19;76.15
25526;BME280;13424;48.424;11.258;2022-12-05T08:26:37;95665.28;;;7.17;76.22
25526;BME280;13424;48.424;11.258;2022-12-05T08:29:07;95669.53;;;7.25;76.16
25526;BME280;13424;48.424;11.258;2022-12-05T08:31:39;95682.03;;;7.18;76.05
25526;BME280;13424;48.424;11.258;2022-12-05T08:34:06;95680.56;;;7.22;76.52
25526;BME280;13424;48.424;11.258;2022-12-05T08:36:32;95692.16;;;7.27;75.99
25526;BME280;13424;48.424;11.258;2022-12-05T08:39:01;95693.47;;;7.43;75.55
25526;BME280;13424;48.424;11.258;2022-12-05T08:41:28;95694.84;;;6.96;76.79
25526;BME280;13424;48.424;11.258;2022-12-05T08:44:01;95687.78;;;6.83;77.61
25526;BME280;13424;48.424;11.258;2022-12-05T08:46:32;95693.63;;;7.23;77.04
25526;BME280;13424;48.424;11.258;2022-12-05T08:48:58;95691.19;;;7.22;76.21
25526;BME280;13424;48.424;11.258;2022-12-05T08:51:24;95704.44;;;7.22;76.87
25526;BME280;13424;48.424;11.258;2022-12-05T08:53:50;95706.56;;;7.38;75.62
25526;BME280;13424;48.424;11.258;2022-12-05T08:56:16;95700.72;;;7.30;76.48
25526;BME280;13424;48.424;11.258;2022-12-05T08:58:42;95707.63;;;7.55;75.50
25526;BME280;13424;48.424;11.258;2022-12-05T09:01:16;95713.13;;;7.61;75.92
25526;BME280;13424;48.424;11.258;2022-12-05T09:03:43;95714.97;;;7.35;76.84
25526;BME280;13424;48.424;11.258;2022-12-05T09:06:12;95711.06;;;7.38;76.35
25526;BME280;13424;48.424;11.258;2022-12-05T09:08:38;95722.66;;;7.43;75.91
25526;BME280;13424;48.424;11.258;2022-12-05T09:11:20;95718.22;;;7.62;75.83
25526;BME280;13424;48.424;11.258;2022-12-05T09:13:47;95718.84;;;7.82;75.30
25526;BME280;13424;48.424;11.258;2022-12-05T09:16:21;95714.91;;;7.42;75.83
25526;BME280;13424;48.424;11.258;2022-12-05T09:18:48;95731.44;;;7.87;75.50
25526;BME280;13424;48.424;11.258;2022-12-05T09:21:18;95725.13;;;7.63;76.16
25526;BME280;13424;48.424;11.258;2022-12-05T09:23:44;95730.47;;;8.06;74.58
25526;BME280;13424;48.424;11.258;2022-12-05T09:26:15;95732.19;;;7.94;75.00
25526;BME280;13424;48.424;11.258;2022-12-05T09:28:42;95738.38;;;7.88;74.40
25526;BME280;13424;48.424;11.258;2022-12-05T09:31:15;95738.56;;;7.93;74.82
25526;BME280;13424;48.424;11.258;2022-12-05T09:33:42;95742.06;;;7.87;74.88
25526;BME280;13424;48.424;11.258;2022-12-05T09:36:14;95752.00;;;7.73;76.11
25526;BME280;13424;48.424;11.258;2022-12-05T09:38:41;95749.56;;;7.72;75.15
25526;BME280;13424;48.424;11.258;2022-12-05T09:41:28;95759.97;;;7.98;74.30
25526;BME280;13424;48.424;11.258;2022-12-05T09:50:31;95748.13;;;7.76;75.48
25526;BME280;13424;48.424;11.258;2022-12-05T09:53:33;95750.56;;;7.96;75.34
25526;BME280;13424;48.424;11.258;2022-12-05T09:59:13;95747.88;;;7.77;74.96
25526;BME280;13424;48.424;11.258;2022-12-05T10:02:01;95748.25;;;8.06;75.15
25526;BME280;13424;48.424;11.258;2022-12-05T10:10:00;95738.25;;;7.58;77.52
25526;BME280;13424;48.424;11.258;2022-12-05T10:13:19;95747.63;;;8.04;75.70
25526;BME280;13424;48.424;11.258;2022-12-05T10:15:51;95748.13;;;7.94;75.84
25526;BME280;13424;48.424;11.258;2022-12-05T10:23:56;95751.31;;;7.84;75.79
25526;BME280;13424;48.424;11.258;2022-12-05T10:26:40;95745.28;;;7.71;76.74
25526;BME280;13424;48.424;11.258;2022-12-05T10:29:30;95744.66;;;7.94;76.31
25526;BME280;13424;48.424;11.258;2022-12-05T10:32:17;95743.44;;;8.15;75.53
25526;BME280;13424;48.424;11.258;2022-12-05T10:34:44;95741.91;;;8.07;76.22
25526;BME280;13424;48.424;11.258;2022-12-05T10:37:21;95741.75;;;8.20;76.25
25526;BME280;13424;48.424;11.258;2022-12-05T10:39:49;95747.97;;;7.89;77.01
25526;BME280;13424;48.424;11.258;2022-12-05T10:42:28;95738.78;;;8.28;76.63
25526;BME280;13424;48.424;11.258;2022-12-05T10:45:06;95736.34;;;8.08;76.69
25526;BME280;13424;48.424;11.258;2022-12-05T10:47:33;95738.78;;;8.10;76.68
25526;BME280;13424;48.424;11.258;2022-12-05T10:50:06;95731.47;;;8.05;77.77
25526;BME280;13424;48.424;11.258;2022-12-05T10:52:41;95732.28;;;8.61;75.37
25526;BME280;13424;48.424;11.258;2022-12-05T10:55:16;95728.47;;;8.57;75.88
25526;BME280;13424;48.424;11.258;2022-12-05T10:58:34;95731.59;;;8.54;75.42
25526;BME280;13424;48.424;11.258;2022-12-05T11:01:11;95726.44;;;8.41;76.38
25526;BME280;13424;48.424;11.258;2022-12-05T11:03:39;95728.72;;;8.55;76.31
25526;BME280;13424;48.424;11.258;2022-12-05T11:06:30;95730.00;;;8.09;77.54
25526;BME280;13424;48.424;11.258;2022-12-05T11:09:12;95730.69;;;8.23;76.05
25526;BME280;13424;48.424;11.258;2022-12-05T11:11:40;95729.41;;;8.26;76.85
25526;BME280;13424;48.424;11.258;2022-12-05T11:14:24;95719.47;;;8.58;76.28
25526;BME280;13424;48.424;11.258;2022-12-05T11:16:57;95712.09;;;8.42;76.39
25526;BME280;13424;48.424;11.258;2022-12-05T11:19:36;95723.50;;;8.60;76.28
25526;BME280;13424;48.424;11.258;2022-12-05T11:22:04;95721.06;;;8.59;76.42
25526;BME280;13424;48.424;11.258;2022-12-05T11:24:38;95718.81;;;8.62;77.09
25526;BME280;13424;48.424;11.258;2022-12-05T11:29:43;95711.97;;;8.85;75.89
25526;BME280;13424;48.424;11.258;2022-12-05T11:32:19;95710.22;;;8.90;75.45
25526;BME280;13424;48.424;11.258;2022-12-05T11:37:48;95705.81;;;8.84;75.67
25526;BME280;13424;48.424;11.258;2022-12-05T11:46:09;95707.38;;;8.44;77.82
25526;BME280;13424;48.424;11.258;2022-12-05T11:51:43;95717.75;;;8.27;78.23
25526;BME280;13424;48.424;11.258;2022-12-05T11:54:36;95716.44;;;8.18;77.92
25526;BME280;13424;48.424;11.258;2022-12-05T12:00:00;95722.03;;;8.28;77.86
25526;BME280;13424;48.424;11.258;2022-12-05T12:05:43;95728.97;;;8.10;78.16
25526;BME280;13424;48.424;11.258;2022-12-05T12:08:28;95719.66;;;8.20;78.34
25526;BME280;13424;48.424;11.258;2022-12-05T12:23:08;95718.34;;;7.92;79.72
25526;BME280;13424;48.424;11.258;2022-12-05T12:28:38;95714.59;;;8.18;78.97
25526;BME280;13424;48.424;11.258;2022-12-05T12:31:30;95714.28;;;8.08;78.82
25526;BME280;13424;48.424;11.258;2022-12-05T12:40:28;95708.47;;;8.36;78.04
25526;BME280;13424;48.424;11.258;2022-12-05T12:43:14;95710.75;;;8.32;78.63
25526;BME280;13424;48.424;11.258;2022-12-05T12:48:57;95706.31;;;8.26;79.06
25526;BME280;13424;48.424;11.258;2022-12-05T12:51:25;95712.16;;;8.35;77.99
25526;BME280;13424;48.424;11.258;2022-12-05T13:00:08;95704.78;;;8.37;78.45
25526;BME280;13424;48.424;11.258;2022-12-05T13:02:41;95703.44;;;8.64;77.58
25526;BME280;13424;48.424;11.258;2022-12-05T13:05:41;95702.84;;;8.62;77.09
25526;BME280;13424;48.424;11.258;2022-12-05T13:08:46;95691.28;;;8.68;76.92
25526;BME280;13424;48.424;11.258;2022-12-05T13:15:06;95701.66;;;8.58;77.57
25526;BME280;13424;48.424;11.258;2022-12-05T13:17:35;95694.22;;;8.49;78.21
25526;BME280;13424;48.424;11.258;2022-12-05T13:20:03;95705.91;;;8.48;78.19
25526;BME280;13424;48.424;11.258;2022-12-05T13:22:29;95703.59;;;8.33;78.55
25526;BME280;13424;48.424;11.258;2022-12-05T13:24:56;95701.59;;;8.28;78.98
25526;BME280;13424;48.424;11.258;2022-12-05T13:27:25;95701.53;;;8.35;78.78
25526;BME280;13424;48.424;11.258;2022-12-05T13:30:02;95711.50;;;8.39;78.71
25526;BME280;13424;48.424;11.258;2022-12-05T13:32:35;95708.91;;;8.33;78.88
25526;BME280;13424;48.424;11.258;2022-12-05T13:37:31;95706.47;;;8.31;78.60
25526;BME280;13424;48.424;11.258;2022-12-05T13:40:32;95707.06;;;8.15;79.31
25526;BME280;13424;48.424;11.258;2022-12-05T13:43:19;95701.53;;;8.35;78.97
25526;BME280;13424;48.424;11.258;2022-12-05T13:46:10;95701.69;;;8.22;79.47
25526;BME280;13424;48.424;11.258;2022-12-05T13:48:43;95692.06;;;8.21;79.58
25526;BME280;13424;48.424;11.258;2022-12-05T13:51:30;95697.91;;;8.11;79.74
25526;BME280;13424;48.424;11.258;2022-12-05T13:54:09;95699.22;;;8.20;79.38
25526;BME280;13424;48.424;11.258;2022-12-05T13:56:58;95700.69;;;8.34;78.93
25526;BME280;13424;48.424;11.258;2022-12-05T14:13:00;95692.78;;;7.73;80.88
25526;BME280;13424;48.424;11.258;2022-12-05T14:15:32;95690.28;;;7.78;80.29
25526;BME280;13424;48.424;11.258;2022-12-05T14:18:15;95692.38;;;7.26;82.16
25526;BME280;13424;48.424;11.258;2022-12-05T14:30:02;95699.19;;;7.40;81.11
25526;BME280;13424;48.424;11.258;2022-12-05T14:32:39;95708.59;;;7.43;81.03
25526;BME280;13424;48.424;11.258;2022-12-05T14:35:28;95719.66;;;7.33;81.29
25526;BME280;13424;48.424;11.258;2022-12-05T14:38:06;95723.66;;;7.42;80.84
25526;BME280;13424;48.424;11.258;2022-12-05T14:40:43;95730.94;;;7.53;81.09
25526;BME280;13424;48.424;11.258;2022-12-05T14:43:31;95725.19;;;7.56;80.59
25526;BME280;13424;48.424;11.258;2022-12-05T14:46:07;95725.94;;;7.64;80.38
25526;BME280;13424;48.424;11.258;2022-12-05T14:48:41;95726.53;;;7.66;79.78
25526;BME280;13424;48.424;11.258;2022-12-05T14:54:17;95730.38;;;7.70;80.20
25526;BME280;13424;48.424;11.258;2022-12-05T14:56:47;95738.19;;;7.65;80.17
25526;BME280;13424;48.424;11.258;2022-12-05T14:59:48;95733.63;;;7.72;79.97
25526;BME280;13424;48.424;11.258;2022-12-05T15:02:36;95735.00;;;7.56;81.00
25526;BME280;13424;48.424;11.258;2022-12-05T15:05:28;95727.34;;;7.41;81.48
25526;BME280;13424;48.424;11.258;2022-12-05T15:07:55;95724.38;;;7.31;81.33
25526;BME280;13424;48.424;11.258;2022-12-05T15:10:34;95720.09;;;7.30;82.06
25526;BME280;13424;48.424;11.258;2022-12-05T15:13:30;95730.22;;;7.15;82.27
25526;BME280;13424;48.424;11.258;2022-12-05T15:16:14;95735.59;;;7.33;81.59
25526;BME280;13424;48.424;11.258;2022-12-05T15:18:49;95731.16;;;7.27;82.20
25526;BME280;13424;48.424;11.258;2022-12-05T15:21:32;95732.53;;;7.05;82.18
25526;BME280;13424;48.424;11.258;2022-12-05T15:24:03;95729.44;;;7.08;82.44
25526;BME280;13424;48.424;11.258;2022-12-05T15:26:54;95732.56;;;6.98;83.13
25526;BME280;13424;48.424;11.258;2022-12-05T15:37:17;95727.59;;;7.08;82.29
25526;BME280;13424;48.424;11.258;2022-12-05T15:40:02;95724.38;;;7.31;81.25
25526;BME280;13424;48.424;11.258;2022-12-05T15:42:41;95726.00;;;7.00;82.22
25526;BME280;13424;48.424;11.258;2022-12-05T15:45:16;95731.25;;;7.14;82.43
25526;BME280;13424;48.424;11.258;2022-12-05T15:58:38;95751.03;;;6.80;83.49
25526;BME280;13424;48.424;11.258;2022-12-05T16:01:23;95746.59;;;6.67;83.27
25526;BME280;13424;48.424;11.258;2022-12-05T16:04:02;95750.81;;;6.81;83.08
25526;BME280;13424;48.424;11.258;2022-12-05T16:07:07;95750.31;;;6.97;82.77
25526;BME280;13424;48.424;11.258;2022-12-05T16:09:42;95759.19;;;6.78;83.03
25526;BME280;13424;48.424;11.258;2022-12-05T16:12:30;95753.69;;;6.80;83.01
25526;BME280;13424;48.424;11.258;2022-12-05T16:15:02;95754.94;;;7.09;81.54
25526;BME280;13424;48.424;11.258;2022-12-05T16:17:37;95750.63;;;7.14;82.19
25526;BME280;13424;48.424;11.258;2022-12-05T16:22:52;95756.34;;;7.43;80.58
25526;BME280;13424;48.424;11.258;2022-12-05T16:25:26;95754.16;;;7.33;80.65